createdAt,value
2019-02-19T00:00:45.841Z,15.85
2019-02-19T00:01:50.951Z,13.30
2019-02-19T00:02:56.090Z,13.10
2019-02-19T00:04:01.104Z,12.28
2019-02-19T00:05:06.307Z,11.97
2019-02-19T00:06:11.392Z,15.50
2019-02-19T00:07:16.493Z,16.57
2019-02-19T00:08:21.529Z,14.25
2019-02-19T00:09:26.553Z,12.70
2019-02-19T00:10:31.775Z,15.05
2019-02-19T00:11:36.880Z,13.13
2019-02-19T00:12:41.973Z,13.08
2019-02-19T00:13:47.076Z,14.30
2019-02-19T00:14:52.207Z,16.62
2019-02-19T00:15:57.341Z,13.95
2019-02-19T00:17:02.418Z,13.95
2019-02-19T00:18:07.503Z,13.80
2019-02-19T00:19:12.624Z,15.23
2019-02-19T00:20:17.723Z,14.60
2019-02-19T00:21:22.913Z,18.48
2019-02-19T00:22:27.944Z,23.12
2019-02-19T00:23:33.378Z,19.87
2019-02-19T00:24:38.688Z,19.75
2019-02-19T00:25:44.587Z,17.85
2019-02-19T00:26:49.620Z,19.27
2019-02-19T00:27:54.744Z,17.73
2019-02-19T00:28:59.885Z,16.30
2019-02-19T00:30:05.284Z,17.52
2019-02-19T00:31:10.398Z,16.23
2019-02-19T00:32:15.441Z,17.42
2019-02-19T00:33:20.483Z,17.30
2019-02-19T00:34:25.556Z,16.35
2019-02-19T00:35:30.641Z,17.48
2019-02-19T00:36:35.687Z,16.52
2019-02-19T00:37:40.786Z,16.15
2019-02-19T00:38:45.811Z,16.87
2019-02-19T00:39:50.865Z,15.72
2019-02-19T00:40:56.080Z,14.40
2019-02-19T00:42:01.228Z,15.32
2019-02-19T00:43:06.244Z,18.23
2019-02-19T00:44:22.743Z,16.48
2019-02-19T00:45:39.288Z,20.52
2019-02-19T00:46:55.627Z,16.23
2019-02-19T00:48:12.568Z,16.75
2019-02-19T00:49:29.874Z,18.75
2019-02-19T00:50:46.101Z,17.20
2019-02-19T00:52:03.018Z,18.07
2019-02-19T00:53:20.125Z,21.40
2019-02-19T00:54:36.491Z,19.52
2019-02-19T00:55:53.120Z,20.32
2019-02-19T00:57:09.412Z,18.05
2019-02-19T00:58:26.394Z,18.48
2019-02-19T00:59:42.858Z,17.12
2019-02-19T01:00:59.401Z,19.62
2019-02-19T01:02:15.944Z,20.37
2019-02-19T01:03:32.740Z,17.20
2019-02-19T01:04:49.003Z,19.80
2019-02-19T01:06:04.191Z,21.55
2019-02-19T01:07:28.303Z,20.88
2019-02-19T01:08:45.444Z,18.73
2019-02-19T01:10:02.157Z,19.15
2019-02-19T01:11:18.638Z,17.30
2019-02-19T01:12:35.115Z,18.23
2019-02-19T01:13:52.209Z,19.45
2019-02-19T01:15:09.087Z,18.35
2019-02-19T01:16:25.413Z,16.60
2019-02-19T01:17:41.884Z,19.12
2019-02-19T01:18:58.265Z,16.70
2019-02-19T01:20:14.780Z,16.82
2019-02-19T01:21:31.558Z,15.30
2019-02-19T01:22:50.729Z,17.90
2019-02-19T01:24:07.564Z,16.82
2019-02-19T01:25:23.985Z,16.12
2019-02-19T01:26:40.580Z,18.95
2019-02-19T01:27:57.232Z,16.82
2019-02-19T01:29:13.667Z,15.18
2019-02-19T01:30:30.196Z,15.72
2019-02-19T01:31:46.716Z,14.55
2019-02-19T01:33:03.899Z,14.80
2019-02-19T01:34:20.632Z,17.20
2019-02-19T01:35:37.036Z,16.90
2019-02-19T01:36:53.577Z,14.75
2019-02-19T01:38:10.304Z,15.05
2019-02-19T01:39:26.770Z,16.15
2019-02-19T01:40:43.092Z,18.67
2019-02-19T01:41:59.577Z,21.12
2019-02-19T01:43:16.158Z,14.63
2019-02-19T01:44:32.689Z,16.73
2019-02-19T01:45:49.375Z,17.52
2019-02-19T01:47:06.460Z,16.67
2019-02-19T01:48:23.140Z,16.12
2019-02-19T01:49:39.480Z,16.10
2019-02-19T01:50:56.065Z,16.20
2019-02-19T01:52:13.228Z,15.35
2019-02-19T01:53:30.408Z,14.40
2019-02-19T01:54:47.290Z,15.48
2019-02-19T01:56:02.532Z,15.48
2019-02-19T01:57:26.794Z,14.73
2019-02-19T01:58:43.220Z,15.48
2019-02-19T01:59:59.924Z,17.02
2019-02-19T02:01:17.006Z,15.00
2019-02-19T02:02:33.806Z,18.48
2019-02-19T02:03:50.245Z,19.40
2019-02-19T02:05:06.863Z,15.00
2019-02-19T02:06:23.952Z,15.32
2019-02-19T02:07:41.205Z,16.32
2019-02-19T02:08:57.753Z,18.40
2019-02-19T02:10:14.546Z,15.72
2019-02-19T02:11:30.986Z,16.52
2019-02-19T02:12:48.103Z,15.83
2019-02-19T02:14:07.218Z,16.10
2019-02-19T02:15:23.777Z,18.10
2019-02-19T02:16:40.532Z,17.12
2019-02-19T02:17:57.074Z,16.12
2019-02-19T02:19:14.280Z,16.23
2019-02-19T02:20:31.163Z,14.87
2019-02-19T02:21:47.625Z,15.13
2019-02-19T02:23:04.740Z,14.65
2019-02-19T02:24:21.224Z,17.73
2019-02-19T02:25:37.811Z,16.85
2019-02-19T02:26:54.454Z,15.70
2019-02-19T02:28:11.128Z,14.83
2019-02-19T02:29:28.001Z,13.65
2019-02-19T02:30:44.349Z,16.40
2019-02-19T02:32:00.934Z,14.68
2019-02-19T02:33:17.813Z,15.75
2019-02-19T02:34:35.489Z,14.78
2019-02-19T02:35:51.897Z,15.50
2019-02-19T02:37:08.735Z,15.23
2019-02-19T02:38:25.423Z,15.13
2019-02-19T02:39:41.801Z,15.90
2019-02-19T02:40:58.373Z,14.63
2019-02-19T02:42:14.859Z,17.70
2019-02-19T02:43:30.064Z,15.30
2019-02-19T02:44:54.224Z,19.00
2019-02-19T02:46:10.605Z,15.78
2019-02-19T02:47:27.057Z,13.80
2019-02-19T02:48:45.168Z,16.30
2019-02-19T02:50:01.831Z,16.77
2019-02-19T02:51:18.438Z,14.45
2019-02-19T02:52:34.706Z,14.18
2019-02-19T02:53:51.573Z,12.98
2019-02-19T02:55:07.907Z,14.98
2019-02-19T02:56:24.396Z,15.05
2019-02-19T02:57:41.008Z,10.55
2019-02-19T02:58:58.157Z,14.55
2019-02-19T03:00:14.724Z,13.18
2019-02-19T03:01:31.685Z,12.53
2019-02-19T03:02:48.163Z,11.55
2019-02-19T03:04:05.721Z,12.35
2019-02-19T03:05:22.184Z,12.50
2019-02-19T03:08:12.376Z,12.28
2019-02-19T03:09:29.174Z,10.28
2019-02-19T03:10:45.876Z,12.33
2019-02-19T03:12:03.342Z,12.58
2019-02-19T03:13:20.414Z,12.90
2019-02-19T03:14:37.232Z,12.73
2019-02-19T03:16:02.256Z,17.77
2019-02-19T03:17:14.463Z,16.90
2019-02-19T03:18:30.950Z,19.02
2019-02-19T03:19:47.345Z,15.40
2019-02-19T03:21:03.864Z,14.95
2019-02-19T03:22:20.578Z,15.35
2019-02-19T03:23:37.333Z,16.67
2019-02-19T03:24:54.213Z,16.45
2019-02-19T03:26:10.431Z,13.22
2019-02-19T03:27:26.894Z,16.40
2019-02-19T03:28:43.560Z,15.80
2019-02-19T03:30:00.171Z,17.52
2019-02-19T03:31:15.458Z,15.50
2019-02-19T03:32:39.797Z,13.80
2019-02-19T03:34:16.965Z,17.48
2019-02-19T03:35:33.293Z,17.37
2019-02-19T03:36:50.107Z,19.25
2019-02-19T03:38:06.518Z,14.98
2019-02-19T03:39:23.084Z,18.67
2019-02-19T03:40:39.386Z,16.48
2019-02-19T03:41:55.748Z,18.85
2019-02-19T03:43:12.272Z,16.85
2019-02-19T03:44:28.547Z,15.60
2019-02-19T03:45:45.210Z,14.20
2019-02-19T03:47:02.191Z,15.30
2019-02-19T03:48:18.808Z,14.13
2019-02-19T03:49:33.967Z,14.55
2019-02-19T03:50:58.040Z,12.93
2019-02-19T03:52:15.306Z,13.98
2019-02-19T03:53:32.385Z,15.78
2019-02-19T03:54:48.929Z,16.02
2019-02-19T03:56:05.417Z,12.58
2019-02-19T03:57:22.477Z,14.85
2019-02-19T03:58:39.701Z,13.75
2019-02-19T03:59:56.885Z,12.43
2019-02-19T04:01:13.680Z,14.28
2019-02-19T04:02:30.345Z,17.27
2019-02-19T04:03:47.068Z,12.35
2019-02-19T04:05:03.680Z,16.52
2019-02-19T04:06:20.069Z,15.75
2019-02-19T04:07:36.641Z,16.27
2019-02-19T04:08:53.063Z,20.55
2019-02-19T04:10:09.756Z,14.93
2019-02-19T04:11:26.285Z,16.10
2019-02-19T04:12:42.808Z,16.25
2019-02-19T04:13:59.991Z,15.65
2019-02-19T04:15:16.417Z,17.17
2019-02-19T04:16:33.373Z,15.72
2019-02-19T04:17:49.855Z,16.60
2019-02-19T04:19:06.325Z,15.95
2019-02-19T04:20:22.724Z,17.10
2019-02-19T04:21:39.038Z,15.32
2019-02-19T04:22:55.407Z,17.27
2019-02-19T04:24:11.910Z,15.43
2019-02-19T04:25:29.212Z,16.15
2019-02-19T04:26:46.476Z,18.45
2019-02-19T04:28:06.132Z,16.90
2019-02-19T04:29:22.758Z,17.73
2019-02-19T04:30:39.117Z,16.05
2019-02-19T04:31:56.356Z,19.07
2019-02-19T04:33:12.998Z,16.70
2019-02-19T04:34:29.381Z,17.52
2019-02-19T04:35:46.093Z,17.73
2019-02-19T04:37:02.600Z,17.77
2019-02-19T04:38:19.110Z,19.48
2019-02-19T04:39:35.820Z,17.50
2019-02-19T04:40:52.312Z,17.50
2019-02-19T04:42:09.002Z,18.37
2019-02-19T04:43:25.497Z,18.10
2019-02-19T04:44:42.010Z,18.02
2019-02-19T04:45:58.699Z,17.42
2019-02-19T04:47:15.149Z,18.80
2019-02-19T04:48:31.584Z,18.35
2019-02-19T04:49:48.145Z,18.57
2019-02-19T04:51:04.937Z,17.35
2019-02-19T04:52:21.359Z,17.48
2019-02-19T04:53:38.286Z,17.20
2019-02-19T04:54:56.015Z,17.45
2019-02-19T04:56:12.349Z,18.23
2019-02-19T04:57:29.516Z,17.65
2019-02-19T04:58:46.673Z,16.73
2019-02-19T05:00:03.579Z,19.00
2019-02-19T05:01:21.532Z,18.45
2019-02-19T05:02:38.769Z,17.67
2019-02-19T05:03:55.187Z,18.60
2019-02-19T05:05:11.505Z,18.92
2019-02-19T05:06:28.361Z,18.90
2019-02-19T05:07:44.813Z,18.12
2019-02-19T05:09:02.029Z,19.82
2019-02-19T05:10:21.681Z,20.02
2019-02-19T05:11:38.132Z,19.40
2019-02-19T05:12:55.043Z,18.50
2019-02-19T05:14:11.648Z,17.92
2019-02-19T05:15:30.884Z,18.15
2019-02-19T05:16:47.572Z,18.48
2019-02-19T05:18:03.908Z,17.15
2019-02-19T05:19:20.404Z,20.82
2019-02-19T05:20:36.855Z,18.87
2019-02-19T05:21:54.065Z,19.27
2019-02-19T05:23:11.829Z,21.75
2019-02-19T05:24:28.145Z,20.95
2019-02-19T05:25:44.581Z,20.27
2019-02-19T05:27:01.461Z,19.02
2019-02-19T05:28:18.738Z,17.52
2019-02-19T05:29:35.398Z,19.05
2019-02-19T05:30:51.942Z,18.30
2019-02-19T05:32:09.114Z,18.40
2019-02-19T05:33:25.695Z,20.97
2019-02-19T05:34:42.403Z,20.27
2019-02-19T05:35:58.834Z,19.10
2019-02-19T05:37:15.730Z,19.15
2019-02-19T05:38:32.101Z,16.42
2019-02-19T05:39:48.929Z,16.10
2019-02-19T05:41:05.414Z,15.35
2019-02-19T05:42:22.685Z,14.65
2019-02-19T05:43:39.572Z,17.25
2019-02-19T05:44:55.941Z,17.75
2019-02-19T05:46:12.457Z,16.42
2019-02-19T05:47:28.762Z,15.05
2019-02-19T05:48:45.232Z,14.55
2019-02-19T05:50:02.391Z,14.87
2019-02-19T05:51:19.042Z,18.98
2019-02-19T05:52:35.315Z,19.95
2019-02-19T05:53:52.335Z,24.92
2019-02-19T05:55:08.957Z,17.25
2019-02-19T05:56:25.576Z,18.60
2019-02-19T05:57:42.371Z,18.02
2019-02-19T05:58:59.329Z,18.32
2019-02-19T06:00:16.515Z,18.52
2019-02-19T06:01:33.225Z,17.62
2019-02-19T06:02:49.757Z,18.00
2019-02-19T06:04:06.291Z,20.50
2019-02-19T06:05:22.918Z,16.67
2019-02-19T06:06:39.502Z,16.82
2019-02-19T06:07:56.260Z,15.78
2019-02-19T06:09:13.048Z,17.50
2019-02-19T06:10:29.624Z,16.20
2019-02-19T06:11:46.673Z,15.95
2019-02-19T06:13:03.584Z,15.93
2019-02-19T06:14:19.913Z,16.10
2019-02-19T06:15:36.365Z,15.55
2019-02-19T06:16:58.249Z,15.55
2019-02-19T06:18:11.878Z,17.25
2019-02-19T06:19:29.097Z,15.98
2019-02-19T06:20:46.154Z,16.07
2019-02-19T06:22:03.193Z,17.40
2019-02-19T06:23:19.732Z,16.00
2019-02-19T06:24:35.036Z,14.53
2019-02-19T06:25:59.211Z,14.28
2019-02-19T06:27:15.792Z,14.65
2019-02-19T06:28:32.689Z,15.38
2019-02-19T06:29:49.506Z,16.90
2019-02-19T06:31:05.786Z,17.90
2019-02-19T06:32:22.314Z,16.67
2019-02-19T06:33:39.052Z,18.65
2019-02-19T06:34:55.683Z,15.75
2019-02-19T06:36:12.176Z,16.35
2019-02-19T06:37:28.742Z,18.90
2019-02-19T06:38:46.118Z,15.48
2019-02-19T06:40:02.631Z,14.00
2019-02-19T06:41:19.777Z,14.03
2019-02-19T06:42:36.492Z,18.85
2019-02-19T06:43:54.101Z,15.80
2019-02-19T06:44:59.143Z,16.97
2019-02-19T06:46:04.238Z,14.15
2019-02-19T06:47:09.352Z,15.43
2019-02-19T06:48:14.423Z,14.35
2019-02-19T06:49:22.552Z,16.32
2019-02-19T06:50:27.596Z,15.38
2019-02-19T06:51:32.707Z,15.20
2019-02-19T06:52:37.996Z,13.83
2019-02-19T06:53:43.143Z,14.35
2019-02-19T06:54:48.161Z,16.27
2019-02-19T06:55:53.332Z,16.80
2019-02-19T06:56:58.398Z,13.45
2019-02-19T06:58:03.429Z,14.35
2019-02-19T06:59:08.523Z,13.90
2019-02-19T07:00:13.628Z,15.05
2019-02-19T07:01:22.274Z,14.98
2019-02-19T07:02:55.519Z,15.28
2019-02-19T07:04:04.763Z,15.58
2019-02-19T07:05:14.680Z,17.90
2019-02-19T07:06:19.689Z,13.85
2019-02-19T07:07:24.725Z,13.88
2019-02-19T07:08:29.900Z,13.78
2019-02-19T07:09:34.942Z,16.67
2019-02-19T07:10:40.016Z,13.48
2019-02-19T07:11:45.150Z,13.40
2019-02-19T07:12:50.168Z,13.20
2019-02-19T07:13:55.306Z,14.25
2019-02-19T07:15:00.324Z,13.72
2019-02-19T07:16:05.445Z,14.15
2019-02-19T07:17:15.686Z,15.25
2019-02-19T07:18:17.361Z,13.83
2019-02-19T07:19:22.491Z,14.87
2019-02-19T07:20:27.583Z,16.07
2019-02-19T07:21:32.717Z,13.32
2019-02-19T07:22:37.835Z,13.95
2019-02-19T07:23:42.933Z,14.58
2019-02-19T07:24:48.040Z,14.15
2019-02-19T07:25:53.063Z,14.13
2019-02-19T07:26:58.175Z,15.18
2019-02-19T07:28:03.301Z,16.67
2019-02-19T07:29:08.439Z,18.25
2019-02-19T07:30:13.638Z,13.38
2019-02-19T07:31:18.785Z,15.58
2019-02-19T07:32:23.896Z,13.70
2019-02-19T07:33:29.037Z,16.70
2019-02-19T07:34:34.207Z,19.00
2019-02-19T07:35:39.289Z,14.68
2019-02-19T07:36:44.368Z,14.53
2019-02-19T07:37:49.393Z,15.70
2019-02-19T07:38:54.957Z,13.80
2019-02-19T07:40:00.299Z,18.40
2019-02-19T07:41:05.434Z,13.75
2019-02-19T07:42:10.535Z,19.23
2019-02-19T07:43:15.593Z,14.28
2019-02-19T07:44:20.764Z,14.53
2019-02-19T07:45:25.823Z,13.98
2019-02-19T07:46:30.920Z,14.80
2019-02-19T07:47:35.937Z,14.65
2019-02-19T07:48:40.963Z,17.73
2019-02-19T07:49:46.073Z,16.97
2019-02-19T07:50:51.185Z,15.85
2019-02-19T07:51:56.264Z,15.78
2019-02-19T07:53:01.397Z,22.70
2019-02-19T07:54:06.445Z,18.95
2019-02-19T07:55:11.577Z,17.52
2019-02-19T07:56:16.689Z,15.40
2019-02-19T07:57:21.904Z,17.42
2019-02-19T07:58:26.912Z,17.87
2019-02-19T07:59:32.023Z,15.98
2019-02-19T08:00:37.120Z,15.75
2019-02-19T08:01:42.165Z,19.25
2019-02-19T08:02:48.333Z,17.77
2019-02-19T08:03:53.423Z,14.10
2019-02-19T08:04:58.582Z,13.65
2019-02-19T08:06:03.778Z,19.20
2019-02-19T08:07:08.936Z,23.07
2019-02-19T08:08:14.060Z,18.57
2019-02-19T08:09:19.200Z,13.83
2019-02-19T08:10:24.364Z,12.23
2019-02-19T08:11:29.473Z,9.45
2019-02-19T08:12:34.658Z,11.33
2019-02-19T08:13:39.759Z,13.35
2019-02-19T08:14:44.870Z,17.65
2019-02-19T08:15:49.997Z,13.78
2019-02-19T08:16:56.296Z,12.98
2019-02-19T08:18:01.390Z,13.72
2019-02-19T08:19:06.527Z,14.47
2019-02-19T08:20:16.009Z,12.55
2019-02-19T08:21:18.620Z,17.90
2019-02-19T08:22:23.733Z,13.40
2019-02-19T08:23:29.938Z,12.93
2019-02-19T08:24:35.224Z,13.10
2019-02-19T08:25:40.305Z,16.42
2019-02-19T08:26:45.401Z,17.32
2019-02-19T08:27:51.287Z,12.18
2019-02-19T08:29:06.914Z,11.30
2019-02-19T08:30:03.208Z,10.75
2019-02-19T08:31:08.653Z,10.93
2019-02-19T08:32:13.752Z,13.88
2019-02-19T08:33:20.001Z,12.23
2019-02-19T08:34:25.124Z,11.65
2019-02-19T08:35:30.237Z,12.00
2019-02-19T08:36:35.422Z,12.47
2019-02-19T08:37:40.490Z,12.18
2019-02-19T08:38:45.754Z,12.93
2019-02-19T08:39:51.168Z,12.10
2019-02-19T08:40:56.284Z,10.85
2019-02-19T08:42:01.335Z,11.10
2019-02-19T08:43:06.455Z,10.60
2019-02-19T08:44:11.568Z,10.82
2019-02-19T08:45:16.750Z,11.20
2019-02-19T08:46:21.843Z,15.65
2019-02-19T08:47:26.903Z,24.95
2019-02-19T08:48:33.064Z,16.65
2019-02-19T08:49:38.165Z,15.15
2019-02-19T08:50:43.338Z,15.10
2019-02-19T08:51:55.917Z,11.00
2019-02-19T08:52:57.768Z,12.35
2019-02-19T08:54:02.867Z,9.00
2019-02-19T08:55:07.992Z,10.45
2019-02-19T08:56:13.235Z,11.38
2019-02-19T08:57:19.359Z,11.03
2019-02-19T08:58:24.472Z,9.35
2019-02-19T08:59:29.601Z,10.40
2019-02-19T09:00:34.637Z,11.78
2019-02-19T09:01:39.750Z,12.33
2019-02-19T09:02:44.910Z,11.57
2019-02-19T09:03:50.002Z,12.10
2019-02-19T09:04:57.184Z,10.80
2019-02-19T09:06:02.397Z,13.83
2019-02-19T09:07:07.512Z,15.00
2019-02-19T09:08:12.607Z,15.38
2019-02-19T09:09:17.732Z,12.95
2019-02-19T09:10:22.848Z,15.32
2019-02-19T09:11:28.064Z,12.73
2019-02-19T09:12:33.184Z,10.05
2019-02-19T09:13:38.304Z,10.00
2019-02-19T09:14:43.305Z,10.43
2019-02-19T09:15:48.424Z,9.20
2019-02-19T09:16:54.917Z,8.58
2019-02-19T09:17:59.952Z,11.25
2019-02-19T09:19:05.056Z,7.95
2019-02-19T09:20:11.776Z,7.08
2019-02-19T09:21:16.803Z,9.23
2019-02-19T09:22:22.200Z,6.62
2019-02-19T09:23:27.331Z,6.10
2019-02-19T09:24:32.421Z,7.00
2019-02-19T09:25:37.435Z,7.33
2019-02-19T09:26:42.542Z,5.17
2019-02-19T09:27:47.667Z,5.65
2019-02-19T09:28:52.776Z,5.53
2019-02-19T09:29:57.944Z,4.90
2019-02-19T09:31:03.059Z,5.25
2019-02-19T09:32:08.245Z,6.15
2019-02-19T09:33:13.355Z,5.58
2019-02-19T09:34:18.441Z,5.20
2019-02-19T09:35:23.529Z,4.97
2019-02-19T09:36:30.883Z,4.90
2019-02-19T09:37:35.885Z,6.62
2019-02-19T09:38:41.051Z,5.25
2019-02-19T09:39:46.149Z,5.70
2019-02-19T09:40:51.337Z,6.58
2019-02-19T09:41:56.400Z,4.80
2019-02-19T09:43:01.498Z,4.37
2019-02-19T09:44:06.630Z,5.90
2019-02-19T09:45:11.754Z,5.72
2019-02-19T09:46:16.862Z,5.08
2019-02-19T09:47:21.982Z,6.65
2019-02-19T09:48:27.042Z,7.53
2019-02-19T09:49:32.161Z,8.30
2019-02-19T09:50:37.184Z,8.80
2019-02-19T09:51:42.290Z,12.28
2019-02-19T09:52:47.394Z,11.93
2019-02-19T09:53:52.615Z,10.98
2019-02-19T09:54:57.714Z,13.70
2019-02-19T09:56:02.889Z,12.60
2019-02-19T09:57:07.985Z,13.20
2019-02-19T09:58:13.041Z,15.10
2019-02-19T09:59:18.193Z,14.93
2019-02-19T10:00:23.289Z,13.62
2019-02-19T10:01:28.571Z,17.25
2019-02-19T10:02:33.819Z,14.10
2019-02-19T10:03:38.945Z,15.63
2019-02-19T10:04:43.987Z,16.27
2019-02-19T10:05:49.132Z,15.93
2019-02-19T10:06:54.181Z,17.73
2019-02-19T10:07:59.260Z,15.70
2019-02-19T10:09:05.477Z,15.18
2019-02-19T10:10:13.713Z,15.98
2019-02-19T10:11:18.846Z,15.00
2019-02-19T10:12:24.170Z,16.62
2019-02-19T10:13:29.286Z,17.82
2019-02-19T10:14:34.383Z,15.80
2019-02-19T10:15:40.672Z,17.92
2019-02-19T10:16:45.828Z,18.35
2019-02-19T10:17:50.945Z,15.10
2019-02-19T10:18:56.100Z,14.40
2019-02-19T10:20:01.232Z,14.23
2019-02-19T10:21:06.701Z,20.02
2019-02-19T10:22:11.857Z,13.83
2019-02-19T10:23:16.973Z,12.82
2019-02-19T10:24:22.268Z,12.65
2019-02-19T10:25:27.409Z,16.37
2019-02-19T10:26:32.446Z,12.60
2019-02-19T10:27:37.561Z,12.35
2019-02-19T10:28:42.588Z,12.03
2019-02-19T10:29:47.705Z,9.95
2019-02-19T10:30:52.848Z,10.88
2019-02-19T10:31:57.968Z,10.23
2019-02-19T10:33:03.067Z,9.70
2019-02-19T10:34:08.181Z,9.78
2019-02-19T10:35:13.404Z,12.90
2019-02-19T10:36:18.537Z,8.33
2019-02-19T10:37:23.656Z,7.97
2019-02-19T10:38:28.772Z,9.45
2019-02-19T10:39:33.873Z,8.00
2019-02-19T10:40:39.003Z,6.60
2019-02-19T10:41:44.107Z,6.53
2019-02-19T10:42:49.152Z,6.10
2019-02-19T10:43:54.153Z,7.17
2019-02-19T10:44:59.192Z,6.20
2019-02-19T10:46:04.234Z,6.53
2019-02-19T10:47:09.406Z,6.33
2019-02-19T10:48:19.030Z,6.05
2019-02-19T10:49:21.379Z,7.25
2019-02-19T10:50:26.777Z,6.17
2019-02-19T10:51:31.889Z,7.87
2019-02-19T10:52:37.032Z,7.25
2019-02-19T10:53:42.024Z,7.60
2019-02-19T10:54:47.058Z,8.00
2019-02-19T10:55:52.183Z,6.25
2019-02-19T10:56:57.266Z,7.80
2019-02-19T10:58:02.409Z,9.45
2019-02-19T10:59:07.537Z,7.53
2019-02-19T11:00:16.021Z,10.60
2019-02-19T11:01:21.071Z,9.93
2019-02-19T11:02:26.311Z,9.83
2019-02-19T11:03:32.497Z,10.53
2019-02-19T11:04:37.586Z,9.13
2019-02-19T11:05:42.696Z,9.50
2019-02-19T11:06:47.789Z,11.20
2019-02-19T11:07:52.896Z,9.35
2019-02-19T11:08:58.004Z,9.45
2019-02-19T11:10:03.130Z,10.25
2019-02-19T11:11:08.729Z,8.00
2019-02-19T11:12:13.748Z,8.75
2019-02-19T11:13:19.925Z,7.92
2019-02-19T11:14:25.029Z,7.58
2019-02-19T11:15:30.053Z,7.80
2019-02-19T11:16:35.194Z,7.75
2019-02-19T11:17:40.288Z,7.87
2019-02-19T11:18:45.348Z,7.62
2019-02-19T11:19:50.448Z,8.65
2019-02-19T11:20:55.560Z,7.83
2019-02-19T11:22:00.676Z,7.47
2019-02-19T11:23:05.796Z,13.70
2019-02-19T11:24:10.909Z,9.38
2019-02-19T11:25:16.037Z,6.90
2019-02-19T11:26:21.199Z,8.10
2019-02-19T11:27:26.302Z,6.42
2019-02-19T11:28:31.340Z,12.63
2019-02-19T11:29:36.427Z,6.10
2019-02-19T11:30:41.562Z,6.95
2019-02-19T11:31:46.668Z,6.67
2019-02-19T11:32:51.896Z,7.15
2019-02-19T11:33:56.995Z,7.08
2019-02-19T11:35:02.024Z,7.45
2019-02-19T11:36:07.156Z,7.62
2019-02-19T11:37:12.329Z,8.53
2019-02-19T11:38:17.369Z,7.42
2019-02-19T11:39:22.659Z,7.05
2019-02-19T11:40:27.903Z,8.40
2019-02-19T11:41:32.957Z,6.83
2019-02-19T11:42:37.989Z,7.37
2019-02-19T11:43:43.018Z,7.05
2019-02-19T11:44:48.141Z,7.05
2019-02-19T11:45:53.224Z,10.40
2019-02-19T11:46:58.401Z,6.87
2019-02-19T11:48:03.558Z,7.25
2019-02-19T11:49:08.721Z,9.80
2019-02-19T11:50:14.122Z,7.85
2019-02-19T11:51:20.329Z,7.20
2019-02-19T11:52:25.396Z,7.35
2019-02-19T11:53:30.496Z,8.60
2019-02-19T11:54:35.605Z,7.97
2019-02-19T11:55:40.645Z,7.85
2019-02-19T11:56:45.693Z,9.18
2019-02-19T11:57:50.727Z,8.58
2019-02-19T11:58:55.743Z,10.55
2019-02-19T12:00:01.936Z,7.00
2019-02-19T12:01:08.211Z,7.45
2019-02-19T12:02:15.597Z,13.40
2019-02-19T12:03:20.732Z,7.78
2019-02-19T12:04:25.838Z,11.85
2019-02-19T12:05:30.964Z,7.80
2019-02-19T12:06:36.077Z,7.97
2019-02-19T12:07:41.132Z,7.83
2019-02-19T12:08:46.261Z,8.68
2019-02-19T12:09:51.352Z,7.97
2019-02-19T12:10:56.452Z,8.73
2019-02-19T12:12:01.789Z,8.60
2019-02-19T12:13:06.998Z,7.60
2019-02-19T12:14:12.084Z,7.70
2019-02-19T12:15:19.154Z,7.90
2019-02-19T12:16:24.068Z,9.48
2019-02-19T12:17:29.335Z,10.63
2019-02-19T12:18:34.459Z,8.73
2019-02-19T12:19:39.633Z,8.15
2019-02-19T12:20:44.718Z,8.73
2019-02-19T12:21:49.834Z,10.18
2019-02-19T12:22:56.022Z,8.80
2019-02-19T12:24:01.188Z,8.40
2019-02-19T12:25:06.445Z,9.28
2019-02-19T12:26:11.554Z,8.83
2019-02-19T12:27:16.774Z,9.40
2019-02-19T12:28:21.888Z,9.00
2019-02-19T12:29:27.256Z,8.13
2019-02-19T12:30:32.360Z,8.68
2019-02-19T12:31:37.456Z,10.95
2019-02-19T12:32:42.508Z,8.80
2019-02-19T12:33:47.604Z,8.80
2019-02-19T12:34:52.734Z,8.10
2019-02-19T12:35:57.844Z,9.95
2019-02-19T12:37:02.868Z,10.98
2019-02-19T12:38:07.973Z,8.00
2019-02-19T12:39:13.123Z,14.23
2019-02-19T12:40:18.249Z,9.00
2019-02-19T12:41:23.417Z,8.65
2019-02-19T12:42:28.518Z,9.63
2019-02-19T12:43:33.677Z,8.70
2019-02-19T12:44:38.833Z,9.08
2019-02-19T12:45:43.997Z,9.70
2019-02-19T12:46:49.121Z,10.38
2019-02-19T12:47:54.234Z,8.58
2019-02-19T12:48:59.350Z,9.48
2019-02-19T12:50:04.625Z,10.60
2019-02-19T12:51:09.752Z,9.08
2019-02-19T12:52:14.887Z,8.78
2019-02-19T12:53:20.045Z,9.65
2019-02-19T12:54:25.132Z,9.20
2019-02-19T12:55:30.274Z,9.50
2019-02-19T12:56:35.380Z,10.13
2019-02-19T12:57:40.469Z,9.33
2019-02-19T12:58:45.573Z,6.85
2019-02-19T12:59:56.401Z,8.43
2019-02-19T13:00:57.486Z,11.57
2019-02-19T13:02:02.605Z,10.70
2019-02-19T13:03:07.747Z,11.10
2019-02-19T13:04:12.876Z,9.40
2019-02-19T13:05:18.324Z,10.65
2019-02-19T13:06:23.505Z,11.35
2019-02-19T13:07:28.545Z,10.78
2019-02-19T13:08:33.726Z,10.93
2019-02-19T13:09:38.868Z,10.23
2019-02-19T13:10:44.156Z,9.33
2019-02-19T13:11:49.274Z,9.13
2019-02-19T13:12:54.404Z,10.00
2019-02-19T13:13:59.573Z,10.72
2019-02-19T13:15:07.140Z,10.00
2019-02-19T13:16:12.208Z,12.25
2019-02-19T13:17:17.322Z,10.60
2019-02-19T13:18:22.444Z,9.73
2019-02-19T13:19:27.525Z,10.55
2019-02-19T13:20:32.704Z,10.60
2019-02-19T13:21:37.763Z,10.82
2019-02-19T13:22:42.904Z,10.72
2019-02-19T13:23:49.073Z,9.45
2019-02-19T13:24:54.189Z,11.18
2019-02-19T13:25:59.262Z,10.00
2019-02-19T13:27:04.441Z,10.68
2019-02-19T13:28:09.580Z,10.48
2019-02-19T13:29:14.714Z,9.45
2019-02-19T13:30:19.833Z,10.28
2019-02-19T13:31:25.035Z,10.90
2019-02-19T13:32:30.150Z,13.83
2019-02-19T13:33:35.272Z,15.00
2019-02-19T13:34:40.393Z,20.30
2019-02-19T13:35:45.581Z,19.80
2019-02-19T13:36:50.744Z,19.12
2019-02-19T13:37:55.856Z,12.25
2019-02-19T13:39:00.900Z,13.70
2019-02-19T13:40:08.679Z,13.32
2019-02-19T13:41:13.833Z,12.90
2019-02-19T13:42:18.976Z,11.93
2019-02-19T13:43:24.130Z,14.68
2019-02-19T13:44:29.255Z,13.50
2019-02-19T13:45:34.386Z,12.78
2019-02-19T13:46:39.463Z,10.63
2019-02-19T13:47:44.623Z,11.45
2019-02-19T13:48:49.738Z,9.60
2019-02-19T13:49:54.776Z,9.30
2019-02-19T13:50:59.881Z,12.25
2019-02-19T13:52:22.510Z,9.68
2019-02-19T13:53:51.162Z,11.83
2019-02-19T13:55:04.576Z,10.58
2019-02-19T13:56:09.958Z,10.15
2019-02-19T13:57:15.064Z,8.65
2019-02-19T13:58:20.183Z,9.83
2019-02-19T13:59:25.306Z,9.08
2019-02-19T14:00:31.938Z,10.93
2019-02-19T14:01:37.015Z,9.40
2019-02-19T14:02:42.163Z,10.18
2019-02-19T14:03:47.304Z,10.43
2019-02-19T14:04:52.341Z,9.68
2019-02-19T14:05:57.381Z,10.60
2019-02-19T14:07:02.477Z,11.75
2019-02-19T14:08:14.277Z,11.05
2019-02-19T14:09:14.572Z,9.80
2019-02-19T14:10:19.685Z,9.53
2019-02-19T14:11:24.816Z,13.43
2019-02-19T14:12:29.929Z,9.58
2019-02-19T14:13:35.065Z,10.28
2019-02-19T14:15:11.181Z,9.58
2019-02-19T14:16:27.240Z,8.53
2019-02-19T14:17:32.341Z,8.50
2019-02-19T14:18:58.170Z,11.22
2019-02-19T14:20:22.277Z,9.40
2019-02-19T14:21:45.104Z,10.00
2019-02-19T14:23:03.439Z,11.08
2019-02-19T14:24:30.601Z,13.08
2019-02-19T14:26:01.018Z,10.23
2019-02-19T14:27:23.986Z,11.15
2019-02-19T14:29:03.426Z,10.63
2019-02-19T14:30:27.762Z,10.70
2019-02-19T14:31:51.848Z,10.50
2019-02-19T14:33:14.536Z,10.68
2019-02-19T14:34:30.452Z,11.57
2019-02-19T14:36:00.572Z,12.23
2019-02-19T14:37:27.451Z,12.45
2019-02-19T14:38:50.871Z,13.22
2019-02-19T14:40:10.010Z,11.43
2019-02-19T14:41:28.760Z,10.78
2019-02-19T14:43:05.095Z,10.58
2019-02-19T14:44:27.618Z,11.50
2019-02-19T14:45:50.536Z,10.78
2019-02-19T14:47:23.917Z,13.20
2019-02-19T14:48:46.653Z,11.20
2019-02-19T14:50:26.076Z,11.03
2019-02-19T14:51:48.621Z,14.03
2019-02-19T14:53:12.825Z,10.85
2019-02-19T14:54:31.095Z,10.75
2019-02-19T14:55:55.185Z,10.88
2019-02-19T14:57:13.699Z,12.40
2019-02-19T14:58:37.774Z,12.28
2019-02-19T15:00:14.377Z,10.60
2019-02-19T15:01:53.670Z,11.35
2019-02-19T15:03:23.525Z,13.10
2019-02-19T15:04:46.525Z,11.68
2019-02-19T15:06:05.269Z,12.85
2019-02-19T15:07:38.436Z,10.38
2019-02-19T15:09:09.447Z,11.10
2019-02-19T15:10:32.627Z,16.52
2019-02-19T15:11:48.393Z,11.65
2019-02-19T15:13:09.851Z,10.95
2019-02-19T15:14:43.046Z,12.73
2019-02-19T15:16:00.113Z,11.03
2019-02-19T15:17:33.200Z,12.13
2019-02-19T15:18:58.690Z,11.50
2019-02-19T15:20:41.010Z,11.68